sensor_id;sensor_type;location;lat;lon;timestamp;pressure;altitude;pressure_sealevel;temperature;humidity
74960;BME280;63518;49.572;1.106;2023-02-28T00:01:22;100812.25;;;-1.22;67.94
74960;BME280;63518;49.572;1.106;2023-02-28T00:03:49;100802.91;;;-1.42;69.21
74960;BME280;63518;49.572;1.106;2023-02-28T00:06:17;100835.94;;;-1.24;69.30
74960;BME280;63518;49.572;1.106;2023-02-28T00:08:45;100833.44;;;-1.11;69.23
74960;BME280;63518;49.572;1.106;2023-02-28T00:11:14;100835.09;;;-1.25;69.50
74960;BME280;63518;49.572;1.106;2023-02-28T00:13:44;100836.75;;;-1.24;68.47
74960;BME280;63518;49.572;1.106;2023-02-28T00:16:20;100833.69;;;-1.20;69.01
74960;BME280;63518;49.572;1.106;2023-02-28T00:18:48;100839.72;;;-1.33;68.95
74960;BME280;63518;49.572;1.106;2023-02-28T00:21:17;100782.22;;;-1.58;69.17
74960;BME280;63518;49.572;1.106;2023-02-28T00:23:45;100828.88;;;-1.33;69.16
74960;BME280;63518;49.572;1.106;2023-02-28T00:26:12;100823.53;;;-1.41;69.60
74960;BME280;63518;49.572;1.106;2023-02-28T00:28:39;100832.38;;;-1.25;69.20
74960;BME280;63518;49.572;1.106;2023-02-28T00:31:06;100802.16;;;-1.59;68.96
74960;BME280;63518;49.572;1.106;2023-02-28T00:33:35;100813.06;;;-1.44;69.71
74960;BME280;63518;49.572;1.106;2023-02-28T00:36:05;100828.44;;;-1.45;70.29
74960;BME280;63518;49.572;1.106;2023-02-28T00:38:32;100821.16;;;-1.44;69.40
74960;BME280;63518;49.572;1.106;2023-02-28T00:40:59;100827.06;;;-1.41;69.48
74960;BME280;63518;49.572;1.106;2023-02-28T00:43:34;100816.47;;;-1.51;69.66
74960;BME280;63518;49.572;1.106;2023-02-28T00:46:01;100804.00;;;-1.60;69.58
74960;BME280;63518;49.572;1.106;2023-02-28T00:48:29;100818.00;;;-1.48;69.33
74960;BME280;63518;49.572;1.106;2023-02-28T00:50:56;100818.44;;;-1.75;70.34
74960;BME280;63518;49.572;1.106;2023-02-28T00:53:23;100833.00;;;-1.45;70.03
74960;BME280;63518;49.572;1.106;2023-02-28T00:55:51;100823.03;;;-1.45;70.19
74960;BME280;63518;49.572;1.106;2023-02-28T00:58:23;100829.88;;;-1.57;69.54
74960;BME280;63518;49.572;1.106;2023-02-28T01:00:51;100822.91;;;-1.52;70.16
74960;BME280;63518;49.572;1.106;2023-02-28T01:03:21;100822.41;;;-1.55;70.19
74960;BME280;63518;49.572;1.106;2023-02-28T01:05:49;100832.38;;;-1.56;69.45
74960;BME280;63518;49.572;1.106;2023-02-28T01:08:19;100845.91;;;-1.56;69.62
74960;BME280;63518;49.572;1.106;2023-02-28T01:10:46;100851.53;;;-1.65;70.06
74960;BME280;63518;49.572;1.106;2023-02-28T01:13:27;100845.16;;;-1.41;70.04
74960;BME280;63518;49.572;1.106;2023-02-28T01:15:55;100826.47;;;-1.59;69.83
74960;BME280;63518;49.572;1.106;2023-02-28T01:18:24;100826.44;;;-1.51;69.68
74960;BME280;63518;49.572;1.106;2023-02-28T01:20:55;100823.91;;;-1.53;69.00
74960;BME280;63518;49.572;1.106;2023-02-28T01:23:23;100837.84;;;-1.64;70.12
74960;BME280;63518;49.572;1.106;2023-02-28T01:25:51;100832.44;;;-1.64;69.80
74960;BME280;63518;49.572;1.106;2023-02-28T01:28:18;100836.53;;;-1.76;70.65
74960;BME280;63518;49.572;1.106;2023-02-28T01:30:50;100838.06;;;-1.73;70.55
74960;BME280;63518;49.572;1.106;2023-02-28T01:33:17;100836.72;;;-1.77;70.98
74960;BME280;63518;49.572;1.106;2023-02-28T01:35:44;100831.44;;;-1.71;70.25
74960;BME280;63518;49.572;1.106;2023-02-28T01:38:12;100828.19;;;-1.66;70.05
74960;BME280;63518;49.572;1.106;2023-02-28T01:40:48;100824.50;;;-1.65;69.98
74960;BME280;63518;49.572;1.106;2023-02-28T01:45:48;100811.72;;;-1.80;70.28
74960;BME280;63518;49.572;1.106;2023-02-28T01:48:15;100818.06;;;-1.64;70.57
74960;BME280;63518;49.572;1.106;2023-02-28T01:50:45;100816.22;;;-1.64;69.79
74960;BME280;63518;49.572;1.106;2023-02-28T01:53:16;100809.88;;;-1.79;70.25
74960;BME280;63518;49.572;1.106;2023-02-28T01:55:47;100818.59;;;-1.69;70.12
74960;BME280;63518;49.572;1.106;2023-02-28T01:58:16;100817.06;;;-1.63;69.88
74960;BME280;63518;49.572;1.106;2023-02-28T02:00:43;100807.88;;;-1.85;70.89
74960;BME280;63518;49.572;1.106;2023-02-28T02:03:14;100816.06;;;-1.70;70.00
74960;BME280;63518;49.572;1.106;2023-02-28T02:05:43;100778.97;;;-1.85;70.02
74960;BME280;63518;49.572;1.106;2023-02-28T02:08:21;100808.28;;;-1.65;69.69
74960;BME280;63518;49.572;1.106;2023-02-28T02:10:52;100812.75;;;-1.81;70.62
74960;BME280;63518;49.572;1.106;2023-02-28T02:13:52;100821.53;;;-1.79;70.11
74960;BME280;63518;49.572;1.106;2023-02-28T02:19:49;100816.34;;;-1.88;71.14
74960;BME280;63518;49.572;1.106;2023-02-28T02:22:25;100825.44;;;-1.81;70.45
74960;BME280;63518;49.572;1.106;2023-02-28T02:36:22;100808.03;;;-1.87;69.85
74960;BME280;63518;49.572;1.106;2023-02-28T02:38:57;100821.88;;;-1.90;70.76
74960;BME280;63518;49.572;1.106;2023-02-28T02:41:55;100814.75;;;-1.83;70.87
74960;BME280;63518;49.572;1.106;2023-02-28T02:44:50;100818.69;;;-1.93;70.86
74960;BME280;63518;49.572;1.106;2023-02-28T02:47:23;100812.34;;;-2.09;70.79
74960;BME280;63518;49.572;1.106;2023-02-28T02:49:55;100796.44;;;-1.95;71.12
74960;BME280;63518;49.572;1.106;2023-02-28T02:52:34;100794.97;;;-2.14;70.99
74960;BME280;63518;49.572;1.106;2023-02-28T02:55:05;100794.94;;;-2.06;70.95
74960;BME280;63518;49.572;1.106;2023-02-28T02:57:47;100818.91;;;-2.03;70.88
74960;BME280;63518;49.572;1.106;2023-02-28T03:00:17;100808.97;;;-2.11;70.96
74960;BME280;63518;49.572;1.106;2023-02-28T03:02:49;100826.84;;;-2.01;71.21
74960;BME280;63518;49.572;1.106;2023-02-28T03:05:23;100788.81;;;-2.47;71.95
74960;BME280;63518;49.572;1.106;2023-02-28T03:07:53;100794.66;;;-2.19;71.67
74960;BME280;63518;49.572;1.106;2023-02-28T03:10:33;100827.22;;;-2.13;71.80
74960;BME280;63518;49.572;1.106;2023-02-28T03:18:41;100839.34;;;-2.09;71.83
74960;BME280;63518;49.572;1.106;2023-02-28T03:23:42;100835.50;;;-2.22;72.29
74960;BME280;63518;49.572;1.106;2023-02-28T03:26:21;100846.13;;;-2.13;72.03
74960;BME280;63518;49.572;1.106;2023-02-28T03:31:27;100834.31;;;-2.12;72.33
74960;BME280;63518;49.572;1.106;2023-02-28T03:34:09;100841.06;;;-2.16;72.19
74960;BME280;63518;49.572;1.106;2023-02-28T03:36:41;100820.00;;;-2.20;71.97
74960;BME280;63518;49.572;1.106;2023-02-28T03:39:17;100847.66;;;-2.18;71.94
74960;BME280;63518;49.572;1.106;2023-02-28T03:41:50;100847.97;;;-2.05;71.99
74960;BME280;63518;49.572;1.106;2023-02-28T03:44:23;100840.03;;;-2.15;72.07
74960;BME280;63518;49.572;1.106;2023-02-28T03:46:58;100841.75;;;-2.22;71.82
74960;BME280;63518;49.572;1.106;2023-02-28T03:49:32;100828.41;;;-2.23;72.19
74960;BME280;63518;49.572;1.106;2023-02-28T03:52:04;100840.72;;;-2.13;71.72
74960;BME280;63518;49.572;1.106;2023-02-28T03:54:38;100855.78;;;-2.26;72.27
74960;BME280;63518;49.572;1.106;2023-02-28T03:57:18;100840.25;;;-2.24;72.66
74960;BME280;63518;49.572;1.106;2023-02-28T03:59:56;100835.34;;;-2.37;72.38
74960;BME280;63518;49.572;1.106;2023-02-28T04:02:27;100850.84;;;-2.15;72.56
74960;BME280;63518;49.572;1.106;2023-02-28T04:04:54;100858.97;;;-2.23;72.21
74960;BME280;63518;49.572;1.106;2023-02-28T04:07:21;100858.47;;;-2.26;72.86
74960;BME280;63518;49.572;1.106;2023-02-28T04:09:49;100839.72;;;-2.20;72.41
74960;BME280;63518;49.572;1.106;2023-02-28T04:12:17;100858.47;;;-2.26;72.60
74960;BME280;63518;49.572;1.106;2023-02-28T04:14:44;100843.13;;;-2.26;72.12
74960;BME280;63518;49.572;1.106;2023-02-28T04:17:11;100842.78;;;-2.31;72.70
74960;BME280;63518;49.572;1.106;2023-02-28T04:19:39;100847.84;;;-2.28;72.66
74960;BME280;63518;49.572;1.106;2023-02-28T04:22:08;100825.28;;;-2.43;72.41
74960;BME280;63518;49.572;1.106;2023-02-28T04:24:35;100856.59;;;-2.18;72.46
74960;BME280;63518;49.572;1.106;2023-02-28T04:27:03;100802.16;;;-2.54;72.33
74960;BME280;63518;49.572;1.106;2023-02-28T04:29:31;100858.78;;;-2.21;73.07
74960;BME280;63518;49.572;1.106;2023-02-28T04:31:59;100854.25;;;-2.21;72.75
74960;BME280;63518;49.572;1.106;2023-02-28T04:34:29;100850.56;;;-2.28;71.97
74960;BME280;63518;49.572;1.106;2023-02-28T04:36:57;100838.41;;;-2.40;72.44
74960;BME280;63518;49.572;1.106;2023-02-28T04:39:38;100859.28;;;-2.10;71.76
74960;BME280;63518;49.572;1.106;2023-02-28T04:42:06;100874.16;;;-2.22;72.30
74960;BME280;63518;49.572;1.106;2023-02-28T04:44:34;100844.84;;;-2.49;72.69
74960;BME280;63518;49.572;1.106;2023-02-28T04:47:01;100838.59;;;-2.50;72.67
74960;BME280;63518;49.572;1.106;2023-02-28T04:49:28;100847.53;;;-2.49;72.99
74960;BME280;63518;49.572;1.106;2023-02-28T04:51:55;100862.03;;;-2.34;72.95
74960;BME280;63518;49.572;1.106;2023-02-28T04:54:23;100862.19;;;-2.27;73.03
74960;BME280;63518;49.572;1.106;2023-02-28T04:56:50;100856.78;;;-2.27;72.26
74960;BME280;63518;49.572;1.106;2023-02-28T04:59:17;100852.44;;;-2.45;72.99
74960;BME280;63518;49.572;1.106;2023-02-28T05:01:48;100866.91;;;-2.46;73.27
74960;BME280;63518;49.572;1.106;2023-02-28T05:04:16;100852.25;;;-2.43;72.51
74960;BME280;63518;49.572;1.106;2023-02-28T05:06:44;100862.53;;;-2.39;73.33
74960;BME280;63518;49.572;1.106;2023-02-28T05:09:11;100858.28;;;-2.25;72.06
74960;BME280;63518;49.572;1.106;2023-02-28T05:11:39;100855.63;;;-2.49;72.68
74960;BME280;63518;49.572;1.106;2023-02-28T05:14:13;100872.84;;;-2.34;72.39
74960;BME280;63518;49.572;1.106;2023-02-28T05:16:41;100879.75;;;-2.56;73.21
74960;BME280;63518;49.572;1.106;2023-02-28T05:19:08;100860.03;;;-2.56;73.45
74960;BME280;63518;49.572;1.106;2023-02-28T05:21:38;100872.66;;;-2.41;73.08
74960;BME280;63518;49.572;1.106;2023-02-28T05:24:09;100838.78;;;-2.68;73.38
74960;BME280;63518;49.572;1.106;2023-02-28T05:26:40;100861.41;;;-2.60;73.31
74960;BME280;63518;49.572;1.106;2023-02-28T05:29:07;100873.53;;;-2.56;73.56
74960;BME280;63518;49.572;1.106;2023-02-28T05:31:38;100863.75;;;-2.57;74.06
74960;BME280;63518;49.572;1.106;2023-02-28T05:34:05;100881.59;;;-2.40;73.43
74960;BME280;63518;49.572;1.106;2023-02-28T05:36:33;100875.88;;;-2.62;73.42
74960;BME280;63518;49.572;1.106;2023-02-28T05:39:00;100879.59;;;-2.54;73.39
74960;BME280;63518;49.572;1.106;2023-02-28T05:41:28;100892.41;;;-2.56;73.50
74960;BME280;63518;49.572;1.106;2023-02-28T05:43:57;100890.19;;;-2.53;73.28
74960;BME280;63518;49.572;1.106;2023-02-28T05:46:25;100879.09;;;-2.50;73.24
74960;BME280;63518;49.572;1.106;2023-02-28T05:48:52;100888.69;;;-2.39;73.70
74960;BME280;63518;49.572;1.106;2023-02-28T05:51:19;100887.50;;;-2.53;73.54
74960;BME280;63518;49.572;1.106;2023-02-28T05:53:47;100899.84;;;-2.34;73.19
74960;BME280;63518;49.572;1.106;2023-02-28T05:56:16;100899.66;;;-2.41;73.77
74960;BME280;63518;49.572;1.106;2023-02-28T05:58:43;100888.88;;;-2.49;73.43
74960;BME280;63518;49.572;1.106;2023-02-28T06:01:36;100899.84;;;-2.50;73.50
74960;BME280;63518;49.572;1.106;2023-02-28T06:04:05;100904.03;;;-2.48;73.18
74960;BME280;63518;49.572;1.106;2023-02-28T06:06:33;100881.25;;;-2.53;72.93
74960;BME280;63518;49.572;1.106;2023-02-28T06:09:04;100907.25;;;-2.36;72.78
74960;BME280;63518;49.572;1.106;2023-02-28T06:11:32;100893.78;;;-2.60;73.16
74960;BME280;63518;49.572;1.106;2023-02-28T06:14:00;100898.66;;;-2.56;73.21
74960;BME280;63518;49.572;1.106;2023-02-28T06:16:29;100894.28;;;-2.57;73.23
74960;BME280;63518;49.572;1.106;2023-02-28T06:18:58;100913.16;;;-2.49;73.25
74960;BME280;63518;49.572;1.106;2023-02-28T06:21:26;100887.50;;;-2.61;73.88
74960;BME280;63518;49.572;1.106;2023-02-28T06:23:57;100888.69;;;-2.64;73.92
74960;BME280;63518;49.572;1.106;2023-02-28T06:26:24;100898.66;;;-2.56;73.40
74960;BME280;63518;49.572;1.106;2023-02-28T06:28:54;100912.81;;;-2.54;73.60
74960;BME280;63518;49.572;1.106;2023-02-28T06:31:22;100894.94;;;-2.55;73.40
74960;BME280;63518;49.572;1.106;2023-02-28T06:33:50;100865.59;;;-2.82;72.72
74960;BME280;63518;49.572;1.106;2023-02-28T06:36:17;100906.41;;;-2.61;73.60
74960;BME280;63518;49.572;1.106;2023-02-28T06:38:45;100882.09;;;-2.53;73.16
74960;BME280;63518;49.572;1.106;2023-02-28T06:41:12;100904.88;;;-2.47;73.26
74960;BME280;63518;49.572;1.106;2023-02-28T06:43:41;100890.19;;;-2.53;73.39
74960;BME280;63518;49.572;1.106;2023-02-28T06:46:12;100884.97;;;-2.46;72.97
74960;BME280;63518;49.572;1.106;2023-02-28T06:48:42;100895.78;;;-2.54;73.41
74960;BME280;63518;49.572;1.106;2023-02-28T06:51:15;100878.06;;;-2.57;73.17
74960;BME280;63518;49.572;1.106;2023-02-28T06:53:43;100885.34;;;-2.66;73.37
74960;BME280;63518;49.572;1.106;2023-02-28T06:56:12;100899.00;;;-2.51;73.36
74960;BME280;63518;49.572;1.106;2023-02-28T06:58:40;100903.72;;;-2.45;72.79
74960;BME280;63518;49.572;1.106;2023-02-28T07:01:08;100899.66;;;-2.49;73.10
74960;BME280;63518;49.572;1.106;2023-02-28T07:03:36;100903.56;;;-2.51;73.01
74960;BME280;63518;49.572;1.106;2023-02-28T07:06:04;100902.19;;;-2.55;73.42
74960;BME280;63518;49.572;1.106;2023-02-28T07:08:33;100900.16;;;-2.37;73.14
74960;BME280;63518;49.572;1.106;2023-02-28T07:11:01;100907.75;;;-2.41;73.54
74960;BME280;63518;49.572;1.106;2023-02-28T07:13:28;100877.72;;;-2.62;73.02
74960;BME280;63518;49.572;1.106;2023-02-28T07:18:25;100903.53;;;-2.27;73.19
74960;BME280;63518;49.572;1.106;2023-02-28T07:20:53;100914.50;;;-2.28;72.87
74960;BME280;63518;49.572;1.106;2023-02-28T07:23:21;100921.41;;;-2.10;72.71
74960;BME280;63518;49.572;1.106;2023-02-28T07:25:50;100911.94;;;-2.14;72.21
74960;BME280;63518;49.572;1.106;2023-02-28T07:28:17;100892.06;;;-2.29;72.20
74960;BME280;63518;49.572;1.106;2023-02-28T07:30:45;100925.59;;;-1.99;72.19
74960;BME280;63518;49.572;1.106;2023-02-28T07:33:12;100899.59;;;-2.00;71.75
74960;BME280;63518;49.572;1.106;2023-02-28T07:35:40;100927.94;;;-1.80;71.78
74960;BME280;63518;49.572;1.106;2023-02-28T07:38:07;100919.97;;;-1.73;71.08
74960;BME280;63518;49.572;1.106;2023-02-28T07:40:35;100917.59;;;-1.76;71.29
74960;BME280;63518;49.572;1.106;2023-02-28T07:43:02;100927.50;;;-1.60;71.67
74960;BME280;63518;49.572;1.106;2023-02-28T07:45:30;100918.13;;;-1.72;71.18
74960;BME280;63518;49.572;1.106;2023-02-28T07:48:01;100913.88;;;-1.75;71.12
74960;BME280;63518;49.572;1.106;2023-02-28T07:50:28;100926.28;;;-1.41;71.14
74960;BME280;63518;49.572;1.106;2023-02-28T07:52:58;100930.31;;;-1.37;70.43
74960;BME280;63518;49.572;1.106;2023-02-28T07:55:26;100900.59;;;-1.45;70.45
74960;BME280;63518;49.572;1.106;2023-02-28T07:57:53;100932.69;;;-1.11;70.54
74960;BME280;63518;49.572;1.106;2023-02-28T08:00:21;100934.94;;;-1.15;70.18
74960;BME280;63518;49.572;1.106;2023-02-28T08:02:48;100932.22;;;-1.15;69.58
74960;BME280;63518;49.572;1.106;2023-02-28T08:05:15;100937.63;;;-1.15;70.30
74960;BME280;63518;49.572;1.106;2023-02-28T08:07:45;100936.56;;;-0.75;68.93
74960;BME280;63518;49.572;1.106;2023-02-28T08:10:14;100925.97;;;-0.84;67.85
74960;BME280;63518;49.572;1.106;2023-02-28T08:12:41;100937.06;;;-0.79;69.26
74960;BME280;63518;49.572;1.106;2023-02-28T08:15:09;100929.91;;;-0.95;69.32
74960;BME280;63518;49.572;1.106;2023-02-28T08:17:36;100921.34;;;-0.76;68.29
74960;BME280;63518;49.572;1.106;2023-02-28T08:20:03;100933.63;;;-0.96;68.51
74960;BME280;63518;49.572;1.106;2023-02-28T08:22:30;100936.81;;;-0.61;68.67
74960;BME280;63518;49.572;1.106;2023-02-28T08:24:57;100925.91;;;-0.53;68.74
74960;BME280;63518;49.572;1.106;2023-02-28T08:27:24;100918.63;;;-0.53;68.12
74960;BME280;63518;49.572;1.106;2023-02-28T08:29:51;100934.16;;;-0.09;66.72
74960;BME280;63518;49.572;1.106;2023-02-28T08:32:18;100935.63;;;0.16;66.98
74960;BME280;63518;49.572;1.106;2023-02-28T08:34:56;100951.09;;;0.08;65.23
74960;BME280;63518;49.572;1.106;2023-02-28T08:37:24;100945.59;;;0.31;66.35
74960;BME280;63518;49.572;1.106;2023-02-28T08:39:51;100934.31;;;0.42;64.11
74960;BME280;63518;49.572;1.106;2023-02-28T08:42:22;100939.16;;;0.76;63.52
74960;BME280;63518;49.572;1.106;2023-02-28T08:44:49;100926.72;;;0.67;63.64
74960;BME280;63518;49.572;1.106;2023-02-28T08:47:16;100931.66;;;0.78;62.17
74960;BME280;63518;49.572;1.106;2023-02-28T08:49:43;100938.00;;;0.85;61.86
74960;BME280;63518;49.572;1.106;2023-02-28T08:52:10;100934.56;;;0.62;61.83
74960;BME280;63518;49.572;1.106;2023-02-28T08:54:37;100936.91;;;1.16;61.94
74960;BME280;63518;49.572;1.106;2023-02-28T08:57:04;100922.97;;;0.53;61.91
74960;BME280;63518;49.572;1.106;2023-02-28T08:59:31;100925.38;;;0.78;61.52
74960;BME280;63518;49.572;1.106;2023-02-28T09:01:59;100908.88;;;0.94;60.87
74960;BME280;63518;49.572;1.106;2023-02-28T09:04:26;100937.50;;;1.33;61.46
74960;BME280;63518;49.572;1.106;2023-02-28T09:06:53;100911.22;;;0.97;60.21
74960;BME280;63518;49.572;1.106;2023-02-28T09:09:20;100922.69;;;1.14;60.29
74960;BME280;63518;49.572;1.106;2023-02-28T09:11:47;100915.34;;;1.29;59.45
74960;BME280;63518;49.572;1.106;2023-02-28T09:14:15;100937.97;;;1.36;59.67
74960;BME280;63518;49.572;1.106;2023-02-28T09:16:44;100938.50;;;1.10;59.64
74960;BME280;63518;49.572;1.106;2023-02-28T09:19:12;100934.91;;;1.24;59.16
74960;BME280;63518;49.572;1.106;2023-02-28T09:21:39;100928.06;;;1.50;59.16
74960;BME280;63518;49.572;1.106;2023-02-28T09:24:09;100928.25;;;1.48;59.15
74960;BME280;63518;49.572;1.106;2023-02-28T09:26:38;100928.91;;;1.29;56.92
74960;BME280;63518;49.572;1.106;2023-02-28T09:29:21;100939.78;;;1.72;58.02
74960;BME280;63518;49.572;1.106;2023-02-28T09:31:48;100916.28;;;1.85;57.57
74960;BME280;63518;49.572;1.106;2023-02-28T09:34:15;100920.66;;;1.37;56.00
74960;BME280;63518;49.572;1.106;2023-02-28T09:36:44;100933.84;;;1.62;57.37
74960;BME280;63518;49.572;1.106;2023-02-28T09:39:12;100930.41;;;1.74;57.88
74960;BME280;63518;49.572;1.106;2023-02-28T09:41:44;100923.66;;;1.92;56.35
74960;BME280;63518;49.572;1.106;2023-02-28T09:46:50;100926.16;;;1.93;55.48
74960;BME280;63518;49.572;1.106;2023-02-28T09:49:31;100936.34;;;1.84;55.17
74960;BME280;63518;49.572;1.106;2023-02-28T09:52:04;100921.75;;;2.20;55.59
74960;BME280;63518;49.572;1.106;2023-02-28T09:54:32;100934.19;;;2.01;54.42
74960;BME280;63518;49.572;1.106;2023-02-28T10:09:51;100928.63;;;2.92;50.41
74960;BME280;63518;49.572;1.106;2023-02-28T10:12:19;100918.75;;;2.84;49.89
74960;BME280;63518;49.572;1.106;2023-02-28T10:14:46;100937.19;;;2.13;51.13
74960;BME280;63518;49.572;1.106;2023-02-28T10:17:21;100938.38;;;3.21;49.58
74960;BME280;63518;49.572;1.106;2023-02-28T10:20:01;100939.97;;;2.54;50.82
74960;BME280;63518;49.572;1.106;2023-02-28T10:22:36;100932.47;;;3.04;49.64
74960;BME280;63518;49.572;1.106;2023-02-28T10:25:11;100931.53;;;2.84;49.84
74960;BME280;63518;49.572;1.106;2023-02-28T10:27:42;100927.50;;;3.28;50.67
74960;BME280;63518;49.572;1.106;2023-02-28T10:30:11;100940.38;;;2.99;50.31
74960;BME280;63518;49.572;1.106;2023-02-28T10:32:39;100919.78;;;2.77;50.33
74960;BME280;63518;49.572;1.106;2023-02-28T10:35:14;100936.13;;;2.83;49.51
74960;BME280;63518;49.572;1.106;2023-02-28T10:37:44;100933.66;;;2.88;50.09
74960;BME280;63518;49.572;1.106;2023-02-28T10:42:56;100927.56;;;3.87;50.20
74960;BME280;63518;49.572;1.106;2023-02-28T10:45:24;100926.22;;;3.17;49.71
74960;BME280;63518;49.572;1.106;2023-02-28T10:52:54;100901.69;;;3.23;51.01
74960;BME280;63518;49.572;1.106;2023-02-28T10:55:24;100906.81;;;3.93;49.00
74960;BME280;63518;49.572;1.106;2023-02-28T10:57:52;100900.28;;;3.61;49.53
74960;BME280;63518;49.572;1.106;2023-02-28T11:00:21;100890.22;;;4.14;49.21
74960;BME280;63518;49.572;1.106;2023-02-28T11:02:51;100883.31;;;3.59;48.77
74960;BME280;63518;49.572;1.106;2023-02-28T11:07:53;100876.78;;;4.19;49.21
74960;BME280;63518;49.572;1.106;2023-02-28T11:10:25;100885.00;;;3.60;49.25
74960;BME280;63518;49.572;1.106;2023-02-28T11:12:55;100873.00;;;4.07;48.87
74960;BME280;63518;49.572;1.106;2023-02-28T11:15:35;100880.81;;;3.90;48.85
74960;BME280;63518;49.572;1.106;2023-02-28T11:20:38;100875.75;;;3.41;48.16
74960;BME280;63518;49.572;1.106;2023-02-28T11:23:12;100875.28;;;4.43;47.74
74960;BME280;63518;49.572;1.106;2023-02-28T11:25:47;100857.63;;;4.39;49.30
74960;BME280;63518;49.572;1.106;2023-02-28T11:28:26;100849.31;;;4.01;49.28
74960;BME280;63518;49.572;1.106;2023-02-28T11:31:17;100851.19;;;4.20;50.31
74960;BME280;63518;49.572;1.106;2023-02-28T11:33:53;100850.25;;;4.39;50.34
74960;BME280;63518;49.572;1.106;2023-02-28T11:36:24;100842.84;;;3.95;48.88
74960;BME280;63518;49.572;1.106;2023-02-28T11:39:12;100854.28;;;4.30;49.13
74960;BME280;63518;49.572;1.106;2023-02-28T11:50:22;100834.00;;;4.71;46.65
74960;BME280;63518;49.572;1.106;2023-02-28T11:53:02;100827.13;;;4.55;47.69
74960;BME280;63518;49.572;1.106;2023-02-28T11:55:36;100823.38;;;4.50;47.91
74960;BME280;63518;49.572;1.106;2023-02-28T11:58:29;100816.41;;;3.96;48.09
74960;BME280;63518;49.572;1.106;2023-02-28T12:06:25;100821.53;;;4.37;51.17
74960;BME280;63518;49.572;1.106;2023-02-28T12:11:32;100819.19;;;4.47;51.12
74960;BME280;63518;49.572;1.106;2023-02-28T12:20:02;100807.50;;;4.27;51.92
74960;BME280;63518;49.572;1.106;2023-02-28T12:22:57;100810.00;;;4.35;51.83
74960;BME280;63518;49.572;1.106;2023-02-28T12:28:46;100782.91;;;3.56;56.14
74960;BME280;63518;49.572;1.106;2023-02-28T12:31:19;100793.00;;;2.48;57.46
74960;BME280;63518;49.572;1.106;2023-02-28T12:33:54;100779.78;;;4.30;55.28
74960;BME280;63518;49.572;1.106;2023-02-28T12:36:23;100781.00;;;3.03;56.27
74960;BME280;63518;49.572;1.106;2023-02-28T12:39:00;100789.00;;;2.43;59.33
74960;BME280;63518;49.572;1.106;2023-02-28T12:41:53;100776.59;;;3.09;59.01
74960;BME280;63518;49.572;1.106;2023-02-28T12:44:30;100770.53;;;3.40;56.17
74960;BME280;63518;49.572;1.106;2023-02-28T12:47:02;100765.03;;;4.37;55.14
74960;BME280;63518;49.572;1.106;2023-02-28T12:49:36;100762.47;;;4.49;53.62
74960;BME280;63518;49.572;1.106;2023-02-28T12:52:05;100765.44;;;2.70;58.77
74960;BME280;63518;49.572;1.106;2023-02-28T12:54:49;100767.34;;;2.90;58.69
74960;BME280;63518;49.572;1.106;2023-02-28T12:57:36;100757.91;;;2.11;61.90
74960;BME280;63518;49.572;1.106;2023-02-28T13:00:13;100770.50;;;2.87;61.25
74960;BME280;63518;49.572;1.106;2023-02-28T13:11:05;100747.22;;;2.84;62.58
74960;BME280;63518;49.572;1.106;2023-02-28T13:13:45;100739.09;;;2.17;65.49
74960;BME280;63518;49.572;1.106;2023-02-28T13:16:13;100748.81;;;1.91;66.14
74960;BME280;63518;49.572;1.106;2023-02-28T13:18:45;100735.75;;;2.21;65.24
74960;BME280;63518;49.572;1.106;2023-02-28T13:21:28;100739.28;;;1.67;65.58
74960;BME280;63518;49.572;1.106;2023-02-28T13:23:59;100745.16;;;1.71;66.07
74960;BME280;63518;49.572;1.106;2023-02-28T13:34:33;100722.66;;;1.83;66.40
74960;BME280;63518;49.572;1.106;2023-02-28T13:37:33;100721.88;;;2.70;65.28
74960;BME280;63518;49.572;1.106;2023-02-28T13:55:25;100717.25;;;1.21;75.24
74960;BME280;63518;49.572;1.106;2023-02-28T14:08:37;100710.09;;;0.64;78.38
74960;BME280;63518;49.572;1.106;2023-02-28T14:11:33;100697.16;;;0.44;79.90
74960;BME280;63518;49.572;1.106;2023-02-28T14:14:02;100692.56;;;0.45;79.60
74960;BME280;63518;49.572;1.106;2023-02-28T14:16:59;100677.19;;;1.01;78.47
74960;BME280;63518;49.572;1.106;2023-02-28T14:19:29;100706.63;;;0.55;79.62
74960;BME280;63518;49.572;1.106;2023-02-28T14:32:25;100698.69;;;0.75;79.51
74960;BME280;63518;49.572;1.106;2023-02-28T14:35:10;100689.84;;;0.88;79.28
74960;BME280;63518;49.572;1.106;2023-02-28T14:37:42;100681.72;;;0.66;79.01
74960;BME280;63518;49.572;1.106;2023-02-28T14:40:19;100680.28;;;1.26;77.12
74960;BME280;63518;49.572;1.106;2023-02-28T14:42:55;100676.63;;;1.41;78.47
74960;BME280;63518;49.572;1.106;2023-02-28T14:45:23;100683.81;;;2.03;76.12
74960;BME280;63518;49.572;1.106;2023-02-28T14:47:51;100678.28;;;1.76;77.22
74960;BME280;63518;49.572;1.106;2023-02-28T14:50:22;100678.84;;;1.65;76.41
74960;BME280;63518;49.572;1.106;2023-02-28T14:52:53;100662.97;;;1.27;77.08
74960;BME280;63518;49.572;1.106;2023-02-28T14:55:28;100676.94;;;2.00;76.38
74960;BME280;63518;49.572;1.106;2023-02-28T14:57:59;100663.00;;;2.36;74.17
74960;BME280;63518;49.572;1.106;2023-02-28T15:00:31;100660.59;;;1.94;74.38
74960;BME280;63518;49.572;1.106;2023-02-28T15:03:00;100653.84;;;2.77;72.05
74960;BME280;63518;49.572;1.106;2023-02-28T15:05:32;100651.69;;;2.33;74.51
74960;BME280;63518;49.572;1.106;2023-02-28T15:08:13;100651.88;;;2.18;73.78
74960;BME280;63518;49.572;1.106;2023-02-28T15:10:50;100654.06;;;2.62;71.86
74960;BME280;63518;49.572;1.106;2023-02-28T15:13:19;100656.56;;;2.97;71.20
74960;BME280;63518;49.572;1.106;2023-02-28T15:15:59;100653.19;;;2.49;72.98
74960;BME280;63518;49.572;1.106;2023-02-28T15:18:33;100631.41;;;2.49;72.53
74960;BME280;63518;49.572;1.106;2023-02-28T15:21:13;100637.16;;;1.93;72.87
74960;BME280;63518;49.572;1.106;2023-02-28T15:23:48;100640.19;;;2.24;72.18
74960;BME280;63518;49.572;1.106;2023-02-28T15:26:20;100638.19;;;1.85;74.85
74960;BME280;63518;49.572;1.106;2023-02-28T15:28:57;100634.81;;;1.76;74.72
74960;BME280;63518;49.572;1.106;2023-02-28T15:31:28;100621.56;;;2.34;74.45
74960;BME280;63518;49.572;1.106;2023-02-28T15:34:22;100617.59;;;2.43;72.98